Broen, Sweden

4:42 AM CEST on August 30, 2014 (GMT +0200)
Eftra | Change Station
CLOSE
Current Station
Personal Weather Station
Location: Falkenberg, Halland
Elevation: 146 ft
Nearby Weather Stations

Elev 146 ft 56.86 °N, 12.65 °E | Updated 6 seconds ago

Light Drizzle
Light Drizzle
55.8 °F
Feels Like 55.8 °F
N
6.0
Wind Variable Wind from ESE
Gusts 11.7 mph

Today
High -- | Low -- °F
--% Chance of Precip.
Yesterday
High -- | Low -- °F
Precip. -- in
6:07 AM 8:11 PM
Waxing Crescent, 18% visible
Pressure 29.92 in
Visibility 6.2 miles
Clouds Scattered Clouds 1100 ft
Overcast 2100 ft
Dew Point 55 °F
Humidity 96%
Rainfall 0.00 in
Snow Depth Not available.
UV 0 out of 12
Pollen Not available.
Air Quality Not available.
Flu Activity Not available.
METAR ESTA 300220Z AUTO 12008KT 9999 -DZ SCT011/// OVC021/// 13/12 Q1013

More Conditions Fewer Conditions

Pressure 29.92 in
Visibility 6.2 miles
Clouds Scattered Clouds 1100 ft
Overcast 2100 ft
Dew Point 55 °F
Humidity 96%
Rainfall 0.00 in
Snow Depth Not available.
UV 0 out of 12
Pollen Not available.
Air Quality Not available.
Flu Activity Not available.
METAR ESTA 300220Z AUTO 12008KT 9999 -DZ SCT011/// OVC021/// 13/12 Q1013

More Conditions Fewer Conditions

10-Day Weather Forecast

Almanac

Astronomy

Aug. 30, 2014 Rise Set
Actual Time 6:07 AM CEST 8:11 PM CEST
Civil Twilight 5:26 AM CEST 8:52 PM CEST
Nautical Twilight 4:34 AM CEST 9:43 PM CEST
Astronomical Twilight 3:30 AM CEST 10:45 PM CEST
Moon 11:38 AM CEST 9:31 PM CEST
Length of Visible Light 15h 25m
Length of Day
14h 04m
Tomorrow will be 4m 42s shorter.
Waxing Crescent, 18% of the Moon is Illuminated
Aug 29
Waxing Crescent
Sep 2
First Quarter
Sep 8
Full
Sep 15
Last Quarter
Sep 24
New

Yesterday's Extremes

Country Highs Country Lows

Community

WunderPhotos

Upload Photos

1,748,421 photos uploaded!

Nearby

Snow Depth

Not available.

Earthquake Activity

City Distance Mag. Time & Date
No recent earthquake activity has been reported nearby.
Minimum magnitude displayed is 2.5.

Coastal Water Temperatures

Place Temperature
No Stations Reporting

Nearby Weather Stations